createdAt,value
2023-02-08T00:01:24.021Z,99.90
2023-02-08T00:03:52.455Z,99.90
2023-02-08T00:06:20.912Z,99.90
2023-02-08T00:08:49.031Z,99.90
2023-02-08T00:11:18.468Z,99.90
2023-02-08T00:13:46.712Z,99.90
2023-02-08T00:16:15.894Z,99.90
2023-02-08T00:18:43.966Z,99.90
2023-02-08T00:21:13.592Z,99.90
2023-02-08T00:23:42.146Z,99.90
2023-02-08T00:26:11.055Z,99.90
2023-02-08T00:28:41.021Z,99.90
2023-02-08T00:31:09.277Z,99.90
2023-02-08T00:33:37.436Z,99.90
2023-02-08T00:36:07.615Z,99.90
2023-02-08T00:38:36.570Z,99.90
2023-02-08T00:41:05.061Z,99.90
2023-02-08T00:43:33.335Z,99.90
2023-02-08T00:46:02.921Z,99.90
2023-02-08T00:48:31.668Z,99.90
2023-02-08T00:51:02.120Z,99.90
2023-02-08T00:53:30.538Z,99.90
2023-02-08T00:55:58.872Z,99.90
2023-02-08T00:58:27.000Z,99.90
2023-02-08T01:00:55.592Z,99.90
2023-02-08T01:03:25.519Z,99.90
2023-02-08T01:05:53.769Z,99.90
2023-02-08T01:08:22.211Z,99.90
2023-02-08T01:10:50.344Z,99.90
2023-02-08T01:13:18.404Z,99.90
2023-02-08T01:15:46.604Z,99.90
2023-02-08T01:18:14.692Z,99.90
2023-02-08T01:20:44.418Z,99.90
2023-02-08T01:23:12.500Z,99.90
2023-02-08T01:25:41.810Z,99.90
2023-02-08T01:28:10.019Z,99.90
2023-02-08T01:30:39.363Z,99.90
2023-02-08T01:33:09.941Z,99.90
2023-02-08T01:35:38.065Z,99.90
2023-02-08T01:38:07.553Z,99.90
2023-02-08T01:40:35.833Z,99.90
2023-02-08T01:43:03.963Z,99.90
2023-02-08T01:45:33.404Z,99.90
2023-02-08T01:48:08.986Z,99.90
2023-02-08T01:50:46.236Z,99.90
2023-02-08T01:53:15.918Z,99.90
2023-02-08T01:55:48.863Z,99.90
2023-02-08T01:58:19.190Z,99.90
2023-02-08T02:00:48.064Z,99.90
2023-02-08T02:03:16.747Z,99.90
2023-02-08T02:05:48.410Z,99.90
2023-02-08T02:08:18.037Z,99.90
2023-02-08T02:10:48.333Z,99.90
2023-02-08T02:13:19.419Z,99.90
2023-02-08T02:15:50.536Z,99.90
2023-02-08T02:18:24.297Z,99.90
2023-02-08T02:21:22.457Z,99.90
2023-02-08T02:24:17.530Z,99.90
2023-02-08T02:27:10.641Z,99.90
2023-02-08T02:30:22.840Z,99.90
2023-02-08T02:33:13.219Z,99.90
2023-02-08T02:35:46.595Z,99.90
2023-02-08T02:38:23.199Z,99.90
2023-02-08T02:41:01.643Z,99.90
2023-02-08T02:43:46.191Z,99.90
2023-02-08T02:46:24.273Z,99.90
2023-02-08T02:49:01.103Z,99.90
2023-02-08T02:51:34.710Z,99.90
2023-02-08T02:54:08.613Z,99.90
2023-02-08T02:56:40.278Z,99.90
2023-02-08T02:59:11.710Z,99.90
2023-02-08T03:01:40.742Z,99.90
2023-02-08T03:04:18.047Z,99.90
2023-02-08T03:07:06.747Z,99.90
2023-02-08T03:09:55.259Z,99.90
2023-02-08T03:12:35.359Z,99.90
2023-02-08T03:15:11.071Z,99.90
2023-02-08T03:17:55.143Z,99.90
2023-02-08T03:20:27.603Z,99.90
2023-02-08T03:23:03.704Z,99.90
2023-02-08T03:25:41.425Z,99.90
2023-02-08T03:28:19.444Z,99.90
2023-02-08T03:30:54.891Z,99.90
2023-02-08T03:33:27.604Z,99.90
2023-02-08T03:36:02.315Z,99.90
2023-02-08T03:38:34.378Z,99.90
2023-02-08T03:41:07.370Z,99.90
2023-02-08T03:43:39.163Z,99.90
2023-02-08T03:46:12.403Z,99.90
2023-02-08T03:48:44.932Z,99.90
2023-02-08T03:51:16.681Z,99.90
2023-02-08T03:53:47.028Z,99.90
2023-02-08T03:56:20.157Z,99.90
2023-02-08T03:58:53.088Z,99.90
2023-02-08T04:01:26.056Z,99.90
2023-02-08T04:03:56.425Z,99.90
2023-02-08T04:06:25.937Z,99.90
2023-02-08T04:08:53.960Z,99.90
2023-02-08T04:11:22.098Z,99.90
2023-02-08T04:13:50.135Z,99.90
2023-02-08T04:16:18.163Z,99.90
2023-02-08T04:18:46.242Z,99.90
2023-02-08T04:21:14.278Z,99.90
2023-02-08T04:23:43.684Z,99.90
2023-02-08T04:26:11.735Z,99.90
2023-02-08T04:28:39.758Z,99.90
2023-02-08T04:31:08.134Z,99.90
2023-02-08T04:33:36.176Z,99.90
2023-02-08T04:36:04.365Z,99.90
2023-02-08T04:38:32.547Z,99.90
2023-02-08T04:41:01.954Z,99.90
2023-02-08T04:43:30.128Z,99.90
2023-02-08T04:45:58.200Z,99.90
2023-02-08T04:48:26.334Z,99.90
2023-02-08T04:50:57.431Z,99.90
2023-02-08T04:53:26.028Z,99.90
2023-02-08T04:55:54.246Z,99.90
2023-02-08T04:58:23.996Z,99.90
2023-02-08T05:00:52.059Z,99.90
2023-02-08T05:03:20.927Z,99.90
2023-02-08T05:05:56.929Z,99.90
2023-02-08T05:08:25.089Z,99.90
2023-02-08T05:10:53.585Z,99.90
2023-02-08T05:13:23.027Z,99.90
2023-02-08T05:15:51.313Z,99.90
2023-02-08T05:18:19.502Z,99.90
2023-02-08T05:20:54.727Z,99.90
2023-02-08T05:23:22.807Z,99.90
2023-02-08T05:25:50.961Z,99.90
2023-02-08T05:28:19.382Z,99.90
2023-02-08T05:30:49.279Z,99.90
2023-02-08T05:33:17.491Z,99.90
2023-02-08T05:35:46.278Z,99.90
2023-02-08T05:38:14.385Z,99.90
2023-02-08T05:40:42.716Z,99.90
2023-02-08T05:43:11.072Z,99.90
2023-02-08T05:45:39.111Z,99.90
2023-02-08T05:48:08.620Z,99.90
2023-02-08T05:50:36.745Z,1.00
2023-02-08T05:53:05.029Z,1.00
2023-02-08T05:55:34.026Z,99.90
2023-02-08T05:58:02.300Z,99.90
2023-02-08T06:00:30.516Z,99.90
2023-02-08T06:02:59.429Z,99.90
2023-02-08T06:05:28.966Z,99.90
2023-02-08T06:07:57.188Z,99.90
2023-02-08T06:10:25.553Z,99.90
2023-02-08T06:12:53.577Z,99.90
2023-02-08T06:15:21.652Z,99.90
2023-02-08T06:17:49.739Z,99.90
2023-02-08T06:20:18.353Z,99.90
2023-02-08T06:22:47.903Z,99.90
2023-02-08T06:25:15.971Z,99.90
2023-02-08T06:27:44.244Z,99.90
2023-02-08T06:30:13.190Z,99.90
2023-02-08T06:32:41.295Z,99.90
2023-02-08T06:35:09.827Z,99.90
2023-02-08T06:37:38.069Z,99.90
2023-02-08T06:40:09.020Z,99.90
2023-02-08T06:42:37.107Z,99.90
2023-02-08T06:45:08.251Z,99.90
2023-02-08T06:47:36.452Z,1.00
2023-02-08T06:50:04.674Z,99.90
2023-02-08T06:52:32.880Z,99.90
2023-02-08T06:55:00.912Z,99.90
2023-02-08T06:57:30.404Z,99.90
2023-02-08T06:59:58.587Z,99.90
2023-02-08T07:02:27.770Z,99.90
2023-02-08T07:04:55.970Z,99.90
2023-02-08T07:07:24.018Z,99.90
2023-02-08T07:09:52.115Z,99.90
2023-02-08T07:12:20.157Z,99.90
2023-02-08T07:14:49.575Z,99.90
2023-02-08T07:17:17.675Z,99.90
2023-02-08T07:19:45.911Z,99.90
2023-02-08T07:22:13.973Z,99.90
2023-02-08T07:24:43.627Z,99.90
2023-02-08T07:27:13.282Z,99.90
2023-02-08T07:29:41.691Z,99.90
2023-02-08T07:32:11.606Z,99.90
2023-02-08T07:34:40.768Z,99.90
2023-02-08T07:37:09.221Z,99.90
2023-02-08T07:39:37.273Z,99.90
2023-02-08T07:42:06.625Z,99.90
2023-02-08T07:44:41.426Z,99.90
2023-02-08T07:47:11.105Z,99.90
2023-02-08T07:49:39.265Z,99.90
2023-02-08T07:52:07.606Z,99.90
2023-02-08T07:54:36.035Z,99.90
2023-02-08T07:57:04.101Z,99.90
2023-02-08T07:59:32.247Z,99.90
2023-02-08T08:02:00.413Z,99.90
2023-02-08T08:04:29.952Z,99.90
2023-02-08T08:06:58.057Z,99.90
2023-02-08T08:09:26.566Z,99.90
2023-02-08T08:11:54.631Z,99.90
2023-02-08T08:14:22.835Z,99.90
2023-02-08T08:16:50.933Z,99.90
2023-02-08T08:19:18.997Z,99.90
2023-02-08T08:21:48.405Z,99.90
2023-02-08T08:24:16.867Z,99.90
2023-02-08T08:26:45.035Z,99.90
2023-02-08T08:29:13.365Z,99.90
2023-02-08T08:31:42.695Z,99.90
2023-02-08T08:34:11.023Z,99.90
2023-02-08T08:36:39.118Z,99.90
2023-02-08T08:39:08.724Z,99.90
2023-02-08T08:41:37.264Z,99.90
2023-02-08T08:44:05.765Z,99.90
2023-02-08T08:46:33.893Z,99.90
2023-02-08T08:49:02.270Z,99.90
2023-02-08T08:51:32.536Z,99.90
2023-02-08T08:54:00.508Z,99.90
2023-02-08T08:56:30.147Z,99.90
2023-02-08T08:58:58.321Z,99.90
2023-02-08T09:01:27.090Z,99.90
2023-02-08T09:03:55.234Z,99.90
2023-02-08T09:06:23.395Z,99.90
2023-02-08T09:08:51.914Z,99.90
2023-02-08T09:11:20.145Z,99.90
2023-02-08T09:13:52.785Z,99.90
2023-02-08T09:16:21.251Z,99.90
2023-02-08T09:18:49.387Z,99.90
2023-02-08T09:21:19.407Z,99.90
2023-02-08T09:23:48.477Z,99.90
2023-02-08T09:26:19.063Z,99.90
2023-02-08T09:28:49.048Z,99.90
2023-02-08T09:31:21.994Z,99.90
2023-02-08T09:33:50.850Z,99.90
2023-02-08T09:36:19.236Z,99.90
2023-02-08T09:38:47.829Z,99.90
2023-02-08T09:41:29.109Z,99.90
2023-02-08T09:44:11.290Z,99.90
2023-02-08T09:46:42.665Z,99.90
2023-02-08T09:49:17.462Z,99.90
2023-02-08T09:51:51.320Z,99.90
2023-02-08T09:54:24.272Z,99.90
2023-02-08T09:56:53.982Z,99.90
2023-02-08T09:59:26.998Z,99.90
2023-02-08T10:02:00.491Z,99.90
2023-02-08T10:04:38.472Z,99.90
2023-02-08T10:07:06.543Z,99.90
2023-02-08T10:09:34.721Z,99.90
2023-02-08T10:12:15.211Z,99.90
2023-02-08T10:15:03.309Z,99.90
2023-02-08T10:17:50.415Z,99.90
2023-02-08T10:20:30.508Z,99.90
2023-02-08T10:23:08.494Z,99.90
2023-02-08T10:25:51.671Z,99.90
2023-02-08T10:28:35.905Z,99.90
2023-02-08T10:31:16.855Z,99.90
2023-02-08T10:33:50.741Z,99.90
2023-02-08T10:36:21.961Z,99.90
2023-02-08T10:38:52.960Z,99.90
2023-02-08T10:41:25.926Z,99.90
2023-02-08T10:44:03.418Z,99.90
2023-02-08T10:46:39.035Z,99.90
2023-02-08T10:49:13.595Z,99.90
2023-02-08T10:51:42.021Z,99.90
2023-02-08T10:54:13.812Z,99.90
2023-02-08T10:56:46.581Z,99.90
2023-02-08T10:59:18.454Z,99.90
2023-02-08T11:01:49.416Z,99.90
2023-02-08T11:04:18.750Z,99.90
2023-02-08T11:06:49.272Z,99.90
2023-02-08T11:09:26.407Z,99.90
2023-02-08T11:11:55.257Z,99.90
2023-02-08T11:14:37.901Z,99.90
2023-02-08T11:17:27.238Z,99.90
2023-02-08T11:19:55.762Z,99.90
2023-02-08T11:22:27.245Z,99.90
2023-02-08T11:24:57.903Z,99.90
2023-02-08T11:27:34.669Z,99.90
2023-02-08T11:30:23.275Z,99.90
2023-02-08T11:33:22.760Z,99.90
2023-02-08T11:36:14.259Z,99.90
2023-02-08T11:38:44.131Z,99.90
2023-02-08T11:41:18.993Z,99.90
2023-02-08T11:44:02.505Z,99.90
2023-02-08T11:46:33.696Z,99.90
2023-02-08T11:49:06.943Z,99.90
2023-02-08T11:51:38.351Z,99.90
2023-02-08T11:54:08.036Z,99.90
2023-02-08T11:56:36.831Z,99.90
2023-02-08T11:59:18.050Z,99.90
2023-02-08T12:01:47.039Z,99.90
2023-02-08T12:04:18.666Z,95.70
2023-02-08T12:07:20.416Z,98.30
2023-02-08T12:10:08.421Z,96.00
2023-02-08T12:12:50.118Z,95.60
2023-02-08T12:15:28.727Z,98.80
2023-02-08T12:18:16.545Z,93.70
2023-02-08T12:20:48.044Z,98.10
2023-02-08T12:23:32.472Z,92.60
2023-02-08T12:26:12.522Z,92.70
2023-02-08T12:28:54.688Z,91.20
2023-02-08T12:31:31.419Z,81.00
2023-02-08T12:34:07.548Z,80.80
2023-02-08T12:37:24.844Z,75.70
2023-02-08T12:40:16.817Z,80.60
2023-02-08T12:42:57.483Z,84.20
2023-02-08T12:45:48.917Z,90.20
2023-02-08T12:48:41.316Z,95.90
2023-02-08T12:51:18.370Z,93.60
2023-02-08T12:53:52.949Z,93.50
2023-02-08T12:56:26.288Z,99.00
2023-02-08T12:59:08.249Z,81.60
2023-02-08T13:01:46.001Z,97.00
2023-02-08T13:04:18.094Z,98.00
2023-02-08T13:06:50.464Z,44.50
2023-02-08T13:09:31.414Z,38.10
2023-02-08T13:12:05.605Z,36.30
2023-02-08T13:14:37.166Z,32.60
2023-02-08T13:17:14.554Z,29.90
2023-02-08T13:20:00.210Z,20.20
2023-02-08T13:22:34.133Z,24.50
2023-02-08T13:25:07.827Z,24.00
2023-02-08T13:27:36.786Z,27.90
2023-02-08T13:30:06.450Z,25.90
2023-02-08T13:32:43.816Z,24.20
2023-02-08T13:35:17.354Z,26.60
2023-02-08T13:37:58.232Z,30.40
2023-02-08T13:40:31.143Z,32.10
2023-02-08T13:43:02.364Z,38.70
2023-02-08T13:45:34.450Z,34.60
2023-02-08T13:48:07.264Z,30.60
2023-02-08T13:50:42.168Z,25.60
2023-02-08T13:53:11.156Z,29.50
2023-02-08T13:56:09.651Z,29.80
2023-02-08T13:58:58.613Z,27.30
2023-02-08T14:01:28.804Z,18.50
2023-02-08T14:04:28.764Z,17.60
2023-02-08T14:07:02.052Z,17.50
2023-02-08T14:09:42.783Z,20.20
2023-02-08T14:12:20.798Z,21.20
2023-02-08T14:15:21.651Z,10.50
2023-02-08T14:17:51.576Z,10.20
2023-02-08T14:20:23.215Z,8.30
2023-02-08T14:22:54.437Z,5.20
2023-02-08T14:25:25.810Z,3.70
2023-02-08T14:27:57.320Z,1.00
2023-02-08T14:30:28.750Z,1.00
2023-02-08T14:33:16.349Z,1.00
2023-02-08T14:35:55.241Z,1.00
2023-02-08T14:38:57.586Z,1.00
2023-02-08T14:41:50.166Z,1.00
2023-02-08T14:44:56.729Z,1.00
2023-02-08T14:48:05.342Z,1.00
2023-02-08T14:50:51.560Z,1.00
2023-02-08T14:53:30.401Z,1.00
2023-02-08T14:56:03.984Z,1.00
2023-02-08T14:58:35.624Z,1.00
2023-02-08T15:01:13.263Z,1.00
2023-02-08T15:03:43.196Z,1.00
2023-02-08T15:07:05.648Z,1.00
2023-02-08T15:09:38.447Z,1.00
2023-02-08T15:12:14.904Z,1.00
2023-02-08T15:14:44.377Z,1.00
2023-02-08T15:17:35.988Z,1.00
2023-02-08T15:20:07.329Z,1.00
2023-02-08T15:22:37.409Z,1.00
2023-02-08T15:25:22.705Z,1.00
2023-02-08T15:27:52.746Z,1.00
2023-02-08T15:30:35.141Z,1.00
2023-02-08T15:33:10.322Z,1.00
2023-02-08T15:35:38.608Z,1.00
2023-02-08T15:38:15.307Z,1.00
2023-02-08T15:40:43.670Z,1.00
2023-02-08T15:43:14.323Z,1.00
2023-02-08T15:45:42.507Z,1.00
2023-02-08T15:48:13.577Z,1.00
2023-02-08T15:50:41.999Z,1.00
2023-02-08T15:53:16.687Z,1.00
2023-02-08T15:55:50.200Z,1.00
2023-02-08T15:58:28.629Z,1.00
2023-02-08T16:00:59.169Z,1.00
2023-02-08T16:03:30.544Z,1.00
2023-02-08T16:06:01.606Z,1.00
2023-02-08T16:08:32.529Z,1.00
2023-02-08T16:11:03.048Z,1.00
2023-02-08T16:13:34.906Z,1.00
2023-02-08T16:16:17.636Z,1.00
2023-02-08T16:18:50.235Z,1.00
2023-02-08T16:21:29.045Z,1.00
2023-02-08T16:23:59.020Z,1.00
2023-02-08T16:28:59.718Z,1.00
2023-02-08T16:31:30.723Z,1.00
2023-02-08T16:34:03.894Z,1.00
2023-02-08T16:36:37.041Z,1.00
2023-02-08T16:39:46.932Z,1.00
2023-02-08T16:42:29.325Z,6.90
2023-02-08T16:45:17.092Z,3.30
2023-02-08T16:47:47.882Z,7.70
2023-02-08T16:50:19.515Z,8.50
2023-02-08T16:52:50.667Z,8.30
2023-02-08T16:55:21.971Z,1.00
2023-02-08T16:57:51.891Z,9.40
2023-02-08T17:00:26.061Z,6.80
2023-02-08T17:02:54.817Z,5.60
2023-02-08T17:05:27.424Z,3.90
2023-02-08T17:07:55.662Z,9.20
2023-02-08T17:10:28.755Z,16.00
2023-02-08T17:13:13.504Z,12.10
2023-02-08T17:15:47.147Z,21.70
2023-02-08T17:18:15.427Z,18.50
2023-02-08T17:20:45.274Z,16.60
2023-02-08T17:23:15.456Z,14.70
2023-02-08T17:25:44.374Z,16.60
2023-02-08T17:28:17.514Z,22.00
2023-02-08T17:30:47.213Z,18.40
2023-02-08T17:33:18.647Z,27.20
2023-02-08T17:35:50.027Z,26.80
2023-02-08T17:38:19.245Z,24.00
2023-02-08T17:40:47.796Z,30.50
2023-02-08T17:43:16.365Z,32.60
2023-02-08T17:45:45.351Z,29.90
2023-02-08T17:48:15.362Z,23.20
2023-02-08T17:50:47.802Z,26.60
2023-02-08T17:53:17.697Z,25.60
2023-02-08T17:55:46.703Z,29.50
2023-02-08T17:58:15.338Z,31.80
2023-02-08T18:00:43.643Z,35.00
2023-02-08T18:03:12.334Z,37.30
2023-02-08T18:05:40.526Z,40.90
2023-02-08T18:08:08.700Z,35.60
2023-02-08T18:10:38.221Z,40.50
2023-02-08T18:13:06.369Z,48.80
2023-02-08T18:15:35.720Z,43.60
2023-02-08T18:18:04.041Z,44.90
2023-02-08T18:20:32.201Z,45.90
2023-02-08T18:23:00.404Z,48.70
2023-02-08T18:25:28.867Z,51.80
2023-02-08T18:27:58.933Z,56.20
2023-02-08T18:30:28.015Z,64.50
2023-02-08T18:32:56.162Z,57.90
2023-02-08T18:35:24.229Z,59.70
2023-02-08T18:37:53.512Z,65.00
2023-02-08T18:40:21.813Z,68.10
2023-02-08T18:42:49.852Z,70.70
2023-02-08T18:45:19.446Z,78.30
2023-02-08T18:47:47.977Z,87.50
2023-02-08T18:50:16.391Z,72.60
2023-02-08T18:52:44.491Z,91.70
2023-02-08T18:55:13.016Z,89.80
2023-02-08T18:57:41.291Z,85.00
2023-02-08T19:00:10.932Z,91.20
2023-02-08T19:02:40.686Z,82.40
2023-02-08T19:05:08.967Z,84.60
2023-02-08T19:07:38.747Z,92.60
2023-02-08T19:10:07.638Z,91.20
2023-02-08T19:12:38.322Z,89.90
2023-02-08T19:15:07.110Z,91.80
2023-02-08T19:17:35.527Z,86.90
2023-02-08T19:20:05.736Z,92.00
2023-02-08T19:22:33.980Z,92.50
2023-02-08T19:25:02.244Z,93.90
2023-02-08T19:27:30.715Z,90.30
2023-02-08T19:29:58.803Z,93.30
2023-02-08T19:32:27.019Z,95.60
2023-02-08T19:34:55.144Z,98.40
2023-02-08T19:37:24.515Z,98.10
2023-02-08T19:39:52.772Z,91.40
2023-02-08T19:42:20.852Z,92.10
2023-02-08T19:44:49.055Z,95.00
2023-02-08T19:47:17.126Z,97.10
2023-02-08T19:49:45.237Z,98.70
2023-02-08T19:52:16.218Z,99.90
2023-02-08T19:54:45.635Z,99.90
2023-02-08T19:57:15.942Z,99.90
2023-02-08T19:59:44.613Z,99.90
2023-02-08T20:02:13.207Z,99.90
2023-02-08T20:04:41.806Z,99.90
2023-02-08T20:07:10.327Z,99.90
2023-02-08T20:09:38.573Z,99.90
2023-02-08T20:12:08.433Z,99.90
2023-02-08T20:14:36.620Z,99.90
2023-02-08T20:17:04.957Z,99.90
2023-02-08T20:19:36.137Z,99.90
2023-02-08T20:22:04.375Z,99.90
2023-02-08T20:24:32.544Z,99.90
2023-02-08T20:27:00.726Z,99.90
2023-02-08T20:29:30.724Z,99.90
2023-02-08T20:31:59.554Z,99.90
2023-02-08T20:34:27.682Z,99.90
2023-02-08T20:37:06.803Z,99.90
2023-02-08T20:39:36.694Z,99.90
2023-02-08T20:42:05.301Z,99.90
2023-02-08T20:44:35.480Z,99.90
2023-02-08T20:47:04.107Z,99.90
2023-02-08T20:49:32.620Z,99.90
2023-02-08T20:52:01.177Z,99.90
2023-02-08T20:54:29.545Z,99.90
2023-02-08T20:56:57.914Z,99.90
2023-02-08T20:59:30.273Z,99.90
2023-02-08T21:01:59.989Z,99.90
2023-02-08T21:04:28.188Z,99.90
2023-02-08T21:06:56.369Z,99.90
2023-02-08T21:09:24.798Z,99.90
2023-02-08T21:11:53.313Z,99.90
2023-02-08T21:14:23.497Z,99.90
2023-02-08T21:16:53.780Z,99.90
2023-02-08T21:19:24.183Z,99.90
2023-02-08T21:21:54.050Z,99.90
2023-02-08T21:24:24.007Z,99.90
2023-02-08T21:26:52.168Z,99.90
2023-02-08T21:29:20.608Z,99.90
2023-02-08T21:31:51.714Z,99.90
2023-02-08T21:34:20.670Z,99.90
2023-02-08T21:36:50.640Z,99.90
2023-02-08T21:39:18.741Z,99.90
2023-02-08T21:41:48.218Z,99.90
2023-02-08T21:44:16.644Z,99.90
2023-02-08T21:46:44.779Z,99.90
2023-02-08T21:49:30.641Z,99.90
2023-02-08T21:52:17.593Z,99.90
2023-02-08T21:54:46.084Z,99.90
2023-02-08T21:57:19.628Z,99.90
2023-02-08T21:59:48.639Z,99.90
2023-02-08T22:02:23.351Z,99.90
2023-02-08T22:04:52.584Z,99.90
2023-02-08T22:07:22.243Z,99.90
2023-02-08T22:09:50.437Z,99.90
2023-02-08T22:12:21.685Z,99.90
2023-02-08T22:14:50.976Z,99.90
2023-02-08T22:17:19.678Z,99.90
2023-02-08T22:19:47.918Z,99.90
2023-02-08T22:22:16.076Z,99.90
2023-02-08T22:24:45.555Z,99.90
2023-02-08T22:27:13.796Z,99.90
2023-02-08T22:29:41.890Z,99.90
2023-02-08T22:32:11.068Z,99.90
2023-02-08T22:34:39.869Z,99.90
2023-02-08T22:37:08.301Z,99.90
2023-02-08T22:39:36.598Z,99.90
2023-02-08T22:42:11.936Z,99.90
2023-02-08T22:44:42.126Z,99.90
2023-02-08T22:47:12.007Z,99.90
2023-02-08T22:49:40.449Z,99.90
2023-02-08T22:52:09.547Z,99.90
2023-02-08T22:54:37.822Z,99.90
2023-02-08T22:57:09.579Z,99.90
2023-02-08T22:59:38.718Z,99.90
2023-02-08T23:02:07.312Z,99.90
2023-02-08T23:04:36.943Z,99.90
2023-02-08T23:07:05.396Z,99.90
2023-02-08T23:09:33.409Z,99.90
2023-02-08T23:12:01.567Z,99.90
2023-02-08T23:14:31.057Z,99.90
2023-02-08T23:16:59.129Z,99.90
2023-02-08T23:19:27.505Z,99.90
2023-02-08T23:21:59.180Z,99.90
2023-02-08T23:24:27.701Z,99.90
2023-02-08T23:26:55.778Z,99.90
2023-02-08T23:29:23.921Z,99.90
2023-02-08T23:31:53.612Z,99.90
2023-02-08T23:34:21.846Z,99.90
2023-02-08T23:36:50.031Z,99.90
2023-02-08T23:39:18.168Z,99.90
2023-02-08T23:41:46.360Z,99.90
2023-02-08T23:44:14.446Z,99.90
2023-02-08T23:46:42.571Z,99.90
2023-02-08T23:49:12.138Z,99.90
2023-02-08T23:51:40.228Z,99.90
2023-02-08T23:54:08.692Z,99.90
2023-02-08T23:56:36.858Z,99.90
2023-02-08T23:59:08.110Z,99.90
